Terminal Aerodrome Forecast
Issued by NWS Missoula, MT

Home | Current Version | Previous Version | Text Only | Print | Product List | Glossary On
Versions: 1 2 3 4 5 6 7 8 9 10 11 12 13 14 15 16
000
FTUS45 KMSO 071732
TAFGPI
TAF
KGPI 071732Z 0718/0818 01006KT 4SM -RA BR SCT070 OVC090
     FM071830 01009KT P6SM VCSH SCT070 SCT090
     FM072300 35012G25KT P6SM -SHRA VCTS SCT020 BKN030CB
     FM080200 04011KT P6SM VCSH SCT050 BKN070
     FM080400 04010KT P6SM SCT080=

USA.gov is the U.S. government's official web portal to all federal, state and local government web resources and services.